Theodore, Alabama
Current Conditions -  °F | °C
As of 3:23 AM on Friday 19 Dec 2014 (Local Time) from KBFM Reporting Station
Overcast Overcast  
Wind Chill: 12°   Ceiling: 3500
Heat Index: 12°   Visibility: 10mi
Dew Point:   Wind: 8mph
Humidity: 77%   Direction: 360°N
Pressure: 30.14"   Gusts: NA
Location:  30.55°N, 88.18°W
Report Text: KBFM 190923Z 36007KT 10SM SCT030 OVC035 12/08 A3014 RMK AO2 T01220083
Loading
Personal Weather Stations






























Interactive Weather Map New forecast layout! Learn more

10-Day Weather Forecast

Advertisements
Track Severe Weather on mobile